Time;durP1;ratioP1;P1;durP2;ratioP2;P2;SDS_P1;SDS_P2;PMS_P1;PMS_P2;Temp;Humidity;BMP_temperature;BMP_pressure;BME280_temperature;BME280_humidity;BME280_pressure;Samples;Min_cycle;Max_cycle;Signal;HPM_P1;HPM_P2
2021/11/29 00:01:04;;;;;;;13.03;8.50;;;;;;;1.35;100.00;151713.78;5075762;28;20436;-80
2021/11/29 00:03:40;;;;;;;10.33;8.20;;;;;;;1.36;100.00;151717.63;5093229;28;20448;-80
2021/11/29 00:06:17;;;;;;;10.60;7.70;;;;;;;1.33;100.00;151709.91;5096205;28;20448;-80
2021/11/29 00:08:53;;;;;;;9.80;7.03;;;;;;;1.33;100.00;151709.91;5108838;28;20436;-80
2021/11/29 00:11:30;;;;;;;8.27;6.20;;;;;;;1.28;100.00;151695.78;5093824;28;20487;-80
2021/11/29 00:14:05;;;;;;;7.23;5.13;;;;;;;1.26;100.00;151690.66;5094593;28;20791;-80
2021/11/29 00:16:41;;;;;;;8.53;5.87;;;;;;;1.27;100.00;151693.22;5093253;28;20447;-80
2021/11/29 00:19:17;;;;;;;9.07;5.40;;;;;;;1.26;100.00;151690.66;5111207;28;20447;-80
2021/11/29 00:21:52;;;;;;;7.90;5.53;;;;;;;1.27;100.00;151694.53;5100882;28;20471;-80
2021/11/29 00:24:28;;;;;;;9.00;6.10;;;;;;;1.29;100.00;151699.66;5076058;28;20468;-80
2021/11/29 00:27:05;;;;;;;13.13;8.40;;;;;;;1.28;100.00;151695.78;5075783;28;20444;-80
2021/11/29 00:29:42;;;;;;;9.77;7.07;;;;;;;1.29;100.00;151698.38;5075519;28;20478;-80
2021/11/29 00:32:18;;;;;;;11.17;8.07;;;;;;;1.30;100.00;151700.94;5093306;28;20433;-80
2021/11/29 00:34:54;;;;;;;13.30;9.00;;;;;;;1.28;100.00;151695.78;5078436;28;20450;-80
2021/11/29 00:37:29;;;;;;;11.37;8.70;;;;;;;1.24;100.00;151688.06;5093005;28;20489;-80
2021/11/29 00:40:08;;;;;;;14.30;9.03;;;;;;;1.24;100.00;151686.81;5076510;28;20433;-80
2021/11/29 00:42:45;;;;;;;10.57;8.23;;;;;;;1.21;100.00;151679.09;5061494;28;20437;-80
2021/11/29 00:45:20;;;;;;;13.70;9.80;;;;;;;1.20;100.00;151677.81;5057167;28;20539;-80
2021/11/29 00:47:56;;;;;;;12.60;9.30;;;;;;;1.26;100.00;151690.66;5042414;28;20474;-80
2021/11/29 00:50:36;;;;;;;14.20;9.97;;;;;;;1.24;100.00;151686.81;5076998;28;20465;-80
2021/11/29 00:53:13;;;;;;;17.20;11.07;;;;;;;1.22;100.00;151682.94;5060644;28;20455;-80
2021/11/29 00:55:48;;;;;;;15.17;10.60;;;;;;;1.21;100.00;151680.41;5077306;28;20500;-80
2021/11/29 00:58:25;;;;;;;15.67;11.47;;;;;;;1.22;100.00;151682.94;5076873;28;20449;-80
2021/11/29 01:01:01;;;;;;;16.70;10.97;;;;;;;1.22;100.00;151682.94;5061290;28;20448;-80
2021/11/29 01:03:38;;;;;;;16.97;10.27;;;;;;;1.19;100.00;151675.22;5060648;28;20430;-80
2021/11/29 01:06:14;;;;;;;17.70;10.90;;;;;;;1.14;100.00;151662.38;5076017;28;20445;-80
2021/11/29 01:08:50;;;;;;;13.80;10.10;;;;;;;1.16;100.00;151667.56;5074089;28;20444;-80
2021/11/29 01:11:26;;;;;;;18.67;11.43;;;;;;;1.19;100.00;151673.97;5085469;28;20558;-80
2021/11/29 01:14:03;;;;;;;15.80;11.20;;;;;;;1.19;100.00;151675.22;5078057;28;20861;-80
2021/11/29 01:16:38;;;;;;;15.80;10.17;;;;;;;1.18;100.00;151672.69;5075340;28;20447;-81
2021/11/29 01:19:14;;;;;;;17.73;12.23;;;;;;;1.16;100.00;151667.56;5076525;28;20440;-81
2021/11/29 01:21:49;;;;;;;15.10;10.27;;;;;;;1.18;100.00;151672.69;5086859;28;20484;-81
2021/11/29 01:24:25;;;;;;;16.30;10.23;;;;;;;1.14;100.00;151661.09;5094608;28;20863;-80
2021/11/29 01:27:00;;;;;;;15.43;10.60;;;;;;;1.12;100.00;151657.25;5056181;28;20494;-80
2021/11/29 01:29:38;;;;;;;17.00;11.50;;;;;;;1.15;100.00;151664.97;5065107;28;20538;-80
2021/11/29 01:32:13;;;;;;;17.20;10.50;;;;;;;1.14;100.00;151662.38;5082178;28;20436;-80
2021/11/29 01:34:49;;;;;;;19.43;12.67;;;;;;;1.13;100.00;151659.84;5077298;28;20833;-80
2021/11/29 01:37:24;;;;;;;16.47;11.40;;;;;;;1.12;100.00;151657.25;5068754;28;20437;-80
2021/11/29 01:40:00;;;;;;;16.70;11.17;;;;;;;1.10;100.00;151652.13;5069897;28;20455;-80
2021/11/29 01:42:36;;;;;;;20.40;11.93;;;;;;;1.08;100.00;151647.00;5080357;28;20530;-81
2021/11/29 01:45:17;;;;;;;16.70;11.80;;;;;;;1.11;100.00;151653.41;5092649;28;20452;-81
2021/11/29 01:47:53;;;;;;;18.93;11.83;;;;;;;1.11;100.00;151654.66;5075601;28;20497;-80
2021/11/29 01:50:29;;;;;;;16.93;11.37;;;;;;;1.09;100.00;151649.53;5075570;28;20468;-80
2021/11/29 01:53:06;;;;;;;16.47;10.77;;;;;;;1.11;100.00;151654.66;5059606;28;20448;-80
2021/11/29 01:55:43;;;;;;;20.10;11.80;;;;;;;1.13;100.00;151659.84;5075629;28;20441;-80
2021/11/29 01:58:19;;;;;;;18.93;12.80;;;;;;;1.14;100.00;151662.38;5059733;28;20444;-80
2021/11/29 02:01:00;;;;;;;17.73;11.57;;;;;;;1.15;100.00;151664.97;5070250;28;20444;-80
2021/11/29 02:03:35;;;;;;;16.50;10.90;;;;;;;1.16;100.00;151667.56;5056533;28;20481;-80
2021/11/29 02:06:11;;;;;;;19.37;13.17;;;;;;;1.15;100.00;151663.66;5056088;28;20452;-80
2021/11/29 02:08:47;;;;;;;16.93;10.77;;;;;;;1.13;100.00;151659.84;5074847;28;20432;-80
2021/11/29 02:11:23;;;;;;;17.13;11.47;;;;;;;1.09;100.00;151649.53;5071267;28;20474;-81
2021/11/29 02:14:00;;;;;;;19.63;11.60;;;;;;;1.12;100.00;151657.25;5043160;28;20449;-80
2021/11/29 02:16:37;;;;;;;18.40;13.00;;;;;;;1.07;100.00;151644.41;5075484;28;20977;-80
2021/11/29 02:19:12;;;;;;;19.03;12.70;;;;;;;1.09;100.00;151649.53;5063059;28;20435;-80
2021/11/29 02:21:49;;;;;;;21.30;12.07;;;;;;;1.13;100.00;151658.53;5093155;28;20493;-80
2021/11/29 02:24:25;;;;;;;18.07;11.97;;;;;;;1.11;100.00;151653.41;5094616;28;20439;-80
2021/11/29 02:27:00;;;;;;;17.70;12.30;;;;;;;1.11;100.00;151654.66;5081184;28;20440;-80
2021/11/29 02:29:37;;;;;;;21.30;12.33;;;;;;;1.14;100.00;151662.38;5095512;28;20443;-80
2021/11/29 02:32:12;;;;;;;19.57;13.50;;;;;;;1.13;100.00;151659.84;5079311;28;20503;-80
2021/11/29 02:34:48;;;;;;;18.37;11.80;;;;;;;1.12;100.00;151655.97;5097483;28;20806;-80
2021/11/29 02:37:25;;;;;;;19.47;12.97;;;;;;;1.12;100.00;151657.25;5095077;28;20896;-80
2021/11/29 02:40:00;;;;;;;23.27;14.70;;;;;;;1.08;100.00;151647.00;5094986;28;20534;-80
2021/11/29 02:42:36;;;;;;;24.20;15.97;;;;;;;1.10;100.00;151652.13;5113340;28;20771;-80
2021/11/29 02:45:12;;;;;;;17.73;13.90;;;;;;;1.12;100.00;151657.25;5113300;28;20444;-80
2021/11/29 02:47:47;;;;;;;23.03;14.97;;;;;;;1.07;100.00;151644.41;5113875;28;20405;-80
2021/11/29 02:50:22;;;;;;;21.50;14.90;;;;;;;1.10;100.00;151652.13;5113663;28;20449;-80
2021/11/29 02:52:59;;;;;;;22.20;14.90;;;;;;;1.08;100.00;151647.00;5094277;28;20805;-79
2021/11/29 02:55:38;;;;;;;24.27;14.93;;;;;;;1.04;100.00;151636.69;5091759;28;20444;-80
2021/11/29 02:58:13;;;;;;;21.60;14.37;;;;;;;1.04;100.00;151636.69;5082528;28;20442;-79
2021/11/29 03:00:49;;;;;;;23.47;15.13;;;;;;;1.04;100.00;151635.41;5078514;28;20435;-79
2021/11/29 03:03:24;;;;;;;24.40;16.67;;;;;;;1.03;100.00;151634.09;5115165;28;20447;-80
2021/11/29 03:05:59;;;;;;;25.50;16.80;;;;;;;1.05;100.00;151639.28;5082541;28;20790;-80
2021/11/29 03:08:37;;;;;;;24.97;16.10;;;;;;;1.03;100.00;151634.09;5083537;28;20462;-80
2021/11/29 03:11:12;;;;;;;28.00;17.73;;;;;;;1.03;100.00;151634.09;5095145;28;20961;-80
2021/11/29 03:13:48;;;;;;;25.50;17.37;;;;;;;1.04;100.00;151636.69;5117255;28;20431;-80
2021/11/29 03:16:24;;;;;;;28.97;16.67;;;;;;;1.04;100.00;151635.41;5099380;28;20917;-80
2021/11/29 03:19:00;;;;;;;25.67;16.53;;;;;;;1.05;100.00;151639.28;5117048;28;20412;-80
2021/11/29 03:21:35;;;;;;;22.33;15.77;;;;;;;1.07;100.00;151644.41;5094296;28;20490;-80
2021/11/29 03:24:12;;;;;;;26.37;16.97;;;;;;;1.08;100.00;151647.00;5094061;28;20448;-80
2021/11/29 03:26:48;;;;;;;20.77;14.60;;;;;;;1.05;100.00;151639.28;5075663;28;20956;-80
2021/11/29 03:29:27;;;;;;;23.70;15.80;;;;;;;0.99;100.00;151623.84;5075730;28;20440;-80
2021/11/29 03:32:05;;;;;;;25.97;16.20;;;;;;;1.03;100.00;151634.09;5088566;28;20472;-80
2021/11/29 03:34:40;;;;;;;19.03;12.90;;;;;;;1.03;100.00;151632.88;5095489;28;20432;-80
2021/11/29 03:37:16;;;;;;;22.90;15.20;;;;;;;1.02;100.00;151631.56;5095743;28;20441;-80
2021/11/29 03:39:53;;;;;;;23.47;15.47;;;;;;;1.00;100.00;151626.44;5079353;28;20436;-80
2021/11/29 03:42:29;;;;;;;22.97;14.60;;;;;;;1.02;100.00;151630.28;5092814;28;20436;-80
2021/11/29 03:45:06;;;;;;;24.30;16.30;;;;;;;0.99;100.00;151623.84;5078877;28;20442;-80
2021/11/29 03:47:41;;;;;;;25.13;15.87;;;;;;;1.07;100.00;151643.13;5079766;28;20433;-80
2021/11/29 03:50:17;;;;;;;22.80;15.80;;;;;;;1.02;100.00;151631.56;5096048;28;20503;-80
2021/11/29 03:52:52;;;;;;;26.03;15.90;;;;;;;0.97;100.00;151618.72;5088296;28;20498;-80
2021/11/29 03:55:29;;;;;;;25.17;15.83;;;;;;;0.98;100.00;151621.28;5095036;28;20931;-80
2021/11/29 03:58:05;;;;;;;23.83;16.60;;;;;;;0.96;100.00;151616.16;5090355;28;20437;-80
2021/11/29 04:00:41;;;;;;;22.43;15.10;;;;;;;0.99;100.00;151623.84;5082066;28;20803;-80
2021/11/29 04:03:16;;;;;;;21.90;14.50;;;;;;;0.99;100.00;151622.56;5082863;28;20440;-80
2021/11/29 04:05:52;;;;;;;24.83;16.43;;;;;;;0.98;100.00;151621.28;5095238;28;20440;-80
2021/11/29 04:08:28;;;;;;;22.33;15.47;;;;;;;0.99;100.00;151623.84;5094394;28;20765;-80
2021/11/29 04:11:05;;;;;;;22.73;15.23;;;;;;;1.00;100.00;151626.44;5092737;28;20491;-79
2021/11/29 04:13:42;;;;;;;21.00;14.83;;;;;;;1.01;100.00;151628.97;5077078;28;20932;-79
2021/11/29 04:16:18;;;;;;;20.50;14.40;;;;;;;1.01;100.00;151628.97;5059151;28;20449;-80
2021/11/29 04:18:54;;;;;;;20.53;14.30;;;;;;;1.00;100.00;151626.44;5089169;28;20444;-80
2021/11/29 04:21:29;;;;;;;22.47;15.90;;;;;;;1.00;100.00;151626.44;5087273;28;20471;-79
2021/11/29 04:24:06;;;;;;;22.80;15.63;;;;;;;1.04;100.00;151635.41;5075192;28;20445;-79
2021/11/29 04:26:50;;;;;;;24.30;14.50;;;;;;;1.01;100.00;151628.97;5059258;28;20444;-79
2021/11/29 04:29:28;;;;;;;25.27;16.07;;;;;;;1.01;100.00;151628.97;5082360;28;20474;-80
2021/11/29 04:32:04;;;;;;;24.43;15.07;;;;;;;1.07;100.00;151644.41;5079093;28;20797;-80
2021/11/29 04:34:40;;;;;;;25.23;15.43;;;;;;;1.09;100.00;151648.25;5078541;28;20447;-81
2021/11/29 04:37:19;;;;;;;24.70;16.07;;;;;;;1.08;100.00;151647.00;5078720;28;20463;-80
2021/11/29 04:39:55;;;;;;;20.63;14.30;;;;;;;1.05;100.00;151639.28;5093498;28;20441;-80
2021/11/29 04:42:32;;;;;;;20.00;13.53;;;;;;;1.06;100.00;151641.81;5093169;28;20523;-80
2021/11/29 04:45:08;;;;;;;22.50;16.20;;;;;;;1.07;100.00;151643.13;5065365;28;20436;-80
2021/11/29 04:47:44;;;;;;;21.87;16.27;;;;;;;1.06;100.00;151641.81;5085436;28;20466;-80
2021/11/29 04:50:19;;;;;;;21.60;15.23;;;;;;;1.07;100.00;151644.41;5058156;28;20466;-80
2021/11/29 04:52:55;;;;;;;22.70;14.93;;;;;;;1.07;100.00;151643.13;5082055;28;20476;-80
2021/11/29 04:55:31;;;;;;;20.63;14.47;;;;;;;1.07;100.00;151643.13;5068420;28;20935;-81
2021/11/29 04:58:08;;;;;;;21.07;14.27;;;;;;;1.10;100.00;151650.84;5091150;28;20519;-80
2021/11/29 05:00:48;;;;;;;22.27;14.17;;;;;;;1.10;100.00;151652.13;5078369;28;20461;-80
2021/11/29 05:03:23;;;;;;;21.83;12.77;;;;;;;1.08;100.00;151645.69;5089425;28;20449;-80
2021/11/29 05:05:59;;;;;;;18.00;12.80;;;;;;;1.06;100.00;151641.81;5077704;28;20452;-80
2021/11/29 05:08:36;;;;;;;19.67;11.93;;;;;;;1.07;100.00;151644.41;5093247;28;20449;-79
2021/11/29 05:11:12;;;;;;;18.27;13.77;;;;;;;1.08;100.00;151647.00;5072409;28;20556;-80
2021/11/29 05:13:49;;;;;;;18.57;13.47;;;;;;;1.09;100.00;151648.25;5094651;28;20975;-81
2021/11/29 05:16:25;;;;;;;20.90;13.97;;;;;;;1.08;100.00;151645.69;5089639;28;20449;-80
2021/11/29 05:19:00;;;;;;;18.33;13.33;;;;;;;1.06;100.00;151641.81;5078000;28;20480;-80
2021/11/29 05:21:36;;;;;;;20.33;13.10;;;;;;;1.07;100.00;151644.41;5093584;28;20472;-80
2021/11/29 05:24:12;;;;;;;18.23;12.30;;;;;;;1.08;100.00;151645.69;5084730;28;20506;-80
2021/11/29 05:26:48;;;;;;;21.40;12.77;;;;;;;1.07;100.00;151644.41;5092496;28;20433;-81
2021/11/29 05:29:25;;;;;;;20.50;13.00;;;;;;;1.09;100.00;151649.53;5092452;28;20889;-80
2021/11/29 05:32:01;;;;;;;19.73;13.33;;;;;;;1.08;100.00;151647.00;5087135;28;20828;-80
2021/11/29 05:34:37;;;;;;;21.27;12.33;;;;;;;1.11;100.00;151654.66;5057433;28;20438;-81
2021/11/29 05:37:12;;;;;;;17.57;12.00;;;;;;;1.08;100.00;151645.69;5073011;28;20797;-81
2021/11/29 05:39:48;;;;;;;22.17;13.03;;;;;;;1.06;100.00;151641.81;5057582;28;20438;-80
2021/11/29 05:42:23;;;;;;;19.80;12.67;;;;;;;1.08;100.00;151645.69;5075234;28;20441;-81
2021/11/29 05:45:01;;;;;;;19.90;13.40;;;;;;;1.08;100.00;151647.00;5092321;28;20448;-80
2021/11/29 05:47:37;;;;;;;19.10;12.27;;;;;;;1.05;100.00;151639.28;5092571;28;20437;-80
2021/11/29 05:50:15;;;;;;;21.57;13.63;;;;;;;1.06;100.00;151640.56;5076465;28;20434;-80
2021/11/29 05:52:51;;;;;;;20.57;13.00;;;;;;;1.04;100.00;151636.69;5083738;28;20505;-80
2021/11/29 05:55:27;;;;;;;19.27;13.00;;;;;;;1.08;100.00;151647.00;5071300;28;20436;-80
2021/11/29 05:58:03;;;;;;;22.00;13.60;;;;;;;1.03;100.00;151634.09;5076835;28;20480;-80
2021/11/29 06:00:40;;;;;;;22.07;13.30;;;;;;;1.05;100.00;151639.28;5092159;28;20455;-81
2021/11/29 06:03:16;;;;;;;21.73;13.97;;;;;;;1.03;100.00;151634.09;5084609;28;20442;-80
2021/11/29 06:05:51;;;;;;;20.40;12.80;;;;;;;1.02;100.00;151631.56;5073596;28;20425;-80
2021/11/29 06:08:27;;;;;;;18.60;14.07;;;;;;;1.01;100.00;151628.97;5071942;28;20469;-80
2021/11/29 06:11:03;;;;;;;21.90;13.60;;;;;;;0.99;100.00;151623.84;5087744;28;20433;-80
2021/11/29 06:13:39;;;;;;;18.37;12.73;;;;;;;0.98;100.00;151621.28;5091095;28;20425;-80
2021/11/29 06:16:16;;;;;;;17.80;12.37;;;;;;;1.01;100.00;151628.97;5089997;28;20814;-80
2021/11/29 06:18:51;;;;;;;19.20;12.57;;;;;;;1.00;100.00;151626.44;5092015;28;20445;-80
2021/11/29 06:21:27;;;;;;;17.90;12.60;;;;;;;1.00;100.00;151626.44;5076706;28;20800;-81
2021/11/29 06:24:02;;;;;;;17.40;11.40;;;;;;;0.96;100.00;151616.16;5067807;28;20445;-80
2021/11/29 06:26:39;;;;;;;18.13;11.90;;;;;;;0.94;100.00;151609.72;5075227;28;20790;-80
2021/11/29 06:29:15;;;;;;;18.30;11.97;;;;;;;0.96;100.00;151616.16;5074285;28;20443;-81
2021/11/29 06:31:52;;;;;;;20.43;12.90;;;;;;;0.95;100.00;151613.59;5055569;28;20465;-81
2021/11/29 06:34:27;;;;;;;15.50;11.80;;;;;;;0.95;100.00;151613.59;5074176;28;20464;-80
2021/11/29 06:37:03;;;;;;;18.03;11.07;;;;;;;0.98;100.00;151621.28;5057523;28;20850;-80
2021/11/29 06:39:39;;;;;;;19.30;11.73;;;;;;;0.92;100.00;151605.91;5092320;28;20442;-80
2021/11/29 06:42:15;;;;;;;16.70;11.10;;;;;;;0.94;100.00;151611.03;5068399;28;20992;-80
2021/11/29 06:44:51;;;;;;;15.70;10.23;;;;;;;0.96;100.00;151616.16;5074418;28;20497;-80
2021/11/29 06:47:27;;;;;;;14.60;10.83;;;;;;;0.91;100.00;151602.00;5076077;28;20458;-80
2021/11/29 06:50:03;;;;;;;18.20;12.17;;;;;;;0.91;100.00;151603.31;5079055;28;20468;-80
2021/11/29 06:52:41;;;;;;;18.07;11.33;;;;;;;0.90;100.00;151599.47;5057844;28;20479;-80
2021/11/29 06:55:19;;;;;;;21.47;12.30;;;;;;;0.88;100.00;151595.59;5058485;28;20957;-80
2021/11/29 06:57:55;;;;;;;15.30;10.73;;;;;;;0.86;100.00;151589.19;5089255;23;20468;-80
2021/11/29 07:00:32;;;;;;;17.53;11.00;;;;;;;0.84;100.00;151584.06;5050882;28;21045;-80
2021/11/29 07:03:09;;;;;;;13.30;10.00;;;;;;;0.82;100.00;151578.94;5053206;28;20449;-80
2021/11/29 07:05:45;;;;;;;13.97;9.67;;;;;;;0.87;100.00;151591.75;5047920;28;20527;-80
2021/11/29 07:08:20;;;;;;;16.60;11.00;;;;;;;0.82;100.00;151580.16;5061869;28;20503;-80
2021/11/29 07:10:57;;;;;;;18.47;11.27;;;;;;;0.84;100.00;151584.06;5050438;28;20508;-81
2021/11/29 07:13:33;;;;;;;16.50;10.60;;;;;;;0.86;100.00;151589.19;5038543;28;20464;-80
2021/11/29 07:16:08;;;;;;;17.03;10.27;;;;;;;0.83;100.00;151582.75;5048063;28;20448;-80
2021/11/29 07:18:46;;;;;;;15.17;9.93;;;;;;;0.83;100.00;151582.75;5044853;28;20461;-80
2021/11/29 07:21:22;;;;;;;16.37;10.87;;;;;;;0.82;100.00;151580.16;5060848;28;20428;-80
2021/11/29 07:23:58;;;;;;;14.70;9.20;;;;;;;0.85;100.00;151586.63;5044124;28;20532;-80
2021/11/29 07:26:33;;;;;;;14.40;8.80;;;;;;;0.86;100.00;151589.19;5045246;28;20476;-80
2021/11/29 07:29:09;;;;;;;12.70;9.37;;;;;;;0.85;100.00;151586.63;5030595;28;20439;-80
2021/11/29 07:31:44;;;;;;;16.90;9.67;;;;;;;0.82;100.00;151580.16;5043596;28;20460;-80
2021/11/29 07:34:21;;;;;;;11.83;8.33;;;;;;;0.82;100.00;151580.16;5062518;28;20438;-80
2021/11/29 07:36:57;;;;;;;9.10;7.47;;;;;;;0.83;100.00;151582.75;5043230;28;20536;-80
2021/11/29 07:39:34;;;;;;;11.67;8.47;;;;;;;0.86;100.00;151590.47;5043105;28;20449;-80
2021/11/29 07:42:09;;;;;;;13.40;8.00;;;;;;;0.86;100.00;151590.47;5028318;28;20856;-80
2021/11/29 07:44:45;;;;;;;15.00;9.17;;;;;;;0.88;100.00;151595.59;5047272;28;20531;-80
2021/11/29 07:47:21;;;;;;;12.43;8.20;;;;;;;0.91;100.00;151603.31;5033568;28;20538;-81
2021/11/29 07:49:58;;;;;;;15.30;7.93;;;;;;;0.90;100.00;151600.72;5030314;28;20434;-80
2021/11/29 07:52:34;;;;;;;10.57;7.57;;;;;;;0.87;100.00;151593.06;5048280;28;20476;-80
2021/11/29 07:55:11;;;;;;;14.40;8.10;;;;;;;0.86;100.00;151590.47;5047276;28;20441;-80
2021/11/29 07:57:46;;;;;;;13.70;7.83;;;;;;;0.82;100.00;151578.94;5048268;28;20452;-81
2021/11/29 08:00:24;;;;;;;10.90;7.37;;;;;;;0.83;100.00;151582.75;5069367;28;20919;-80
2021/11/29 08:03:01;;;;;;;14.83;8.90;;;;;;;0.82;100.00;151580.16;5079323;28;20861;-80
2021/11/29 08:05:39;;;;;;;14.70;8.00;;;;;;;0.88;100.00;151594.31;5075591;28;20478;-80
2021/11/29 08:08:14;;;;;;;11.83;7.30;;;;;;;0.88;100.00;151595.59;5101065;28;20534;-80
2021/11/29 08:10:51;;;;;;;11.07;7.33;;;;;;;0.86;100.00;151590.47;5062538;28;20447;-78
2021/11/29 08:13:27;;;;;;;12.40;7.07;;;;;;;0.83;100.00;151581.47;5075608;28;20471;-81
2021/11/29 08:16:02;;;;;;;11.47;7.20;;;;;;;0.84;100.00;151584.06;5090539;28;20518;-81
2021/11/29 08:18:38;;;;;;;11.47;7.17;;;;;;;0.83;100.00;151582.75;5094269;28;20447;-81
2021/11/29 08:21:15;;;;;;;9.73;6.07;;;;;;;0.85;100.00;151587.88;5093713;28;20436;-80
2021/11/29 08:23:51;;;;;;;9.30;6.53;;;;;;;0.85;100.00;151587.88;5095257;28;20555;-80
2021/11/29 08:26:29;;;;;;;10.07;6.63;;;;;;;0.87;100.00;151593.06;5079022;28;20472;-81
2021/11/29 08:29:05;;;;;;;9.23;6.30;;;;;;;0.89;100.00;151596.88;5080132;28;21030;-80
2021/11/29 08:31:41;;;;;;;9.40;6.27;;;;;;;0.88;100.00;151595.59;5058791;28;20428;-81
2021/11/29 08:34:18;;;;;;;7.57;6.20;;;;;;;0.94;100.00;151609.72;5084189;28;20500;-81
2021/11/29 08:36:55;;;;;;;11.00;6.03;;;;;;;0.89;100.00;151598.19;5079435;28;20437;-80
2021/11/29 08:39:30;;;;;;;9.87;6.17;;;;;;;0.90;100.00;151600.72;5065152;28;20802;-81
2021/11/29 08:42:07;;;;;;;10.63;6.40;;;;;;;1.02;100.00;151631.56;5062378;28;20425;-81
2021/11/29 08:44:43;;;;;;;9.20;6.50;;;;;;;1.05;100.00;151639.28;5066239;28;20449;-80
2021/11/29 08:47:19;;;;;;;10.70;6.73;;;;;;;1.13;100.00;151659.84;5100098;28;20527;-81
2021/11/29 08:49:54;;;;;;;8.03;5.80;;;;;;;1.12;100.00;151657.25;5084940;28;20441;-81
2021/11/29 08:52:34;;;;;;;10.67;6.47;;;;;;;1.16;100.00;151667.56;5079883;28;20966;-80
2021/11/29 08:55:10;;;;;;;10.37;5.70;;;;;;;1.21;100.00;151680.41;5078617;28;20469;-82
2021/11/29 08:57:45;;;;;;;7.67;5.70;;;;;;;1.23;100.00;151684.22;5080111;28;20868;-81
2021/11/29 09:00:24;;;;;;;9.27;6.07;;;;;;;1.23;100.00;151685.53;5085419;28;20433;-80
2021/11/29 09:03:01;;;;;;;8.77;5.70;;;;;;;1.24;100.00;151686.81;5076389;28;20452;-80
2021/11/29 09:05:37;;;;;;;20.03;5.80;;;;;;;1.26;100.00;151691.94;5082761;28;20427;-80
2021/11/29 09:08:15;;;;;;;7.57;4.40;;;;;;;1.24;100.00;151688.06;5083452;28;20484;-80
2021/11/29 09:10:51;;;;;;;10.00;6.33;;;;;;;1.21;100.00;151680.41;5069394;28;20935;-81
2021/11/29 09:13:30;;;;;;;8.93;6.30;;;;;;;1.18;100.00;151671.38;5071985;28;20497;-80
2021/11/29 09:16:07;;;;;;;8.60;6.30;;;;;;;1.15;100.00;151664.97;5084854;28;20442;-81
2021/11/29 09:18:43;;;;;;;9.23;6.20;;;;;;;1.11;100.00;151654.66;5082956;28;20451;-80
2021/11/29 09:21:20;;;;;;;10.50;6.60;;;;;;;1.12;100.00;151655.97;5073904;28;21463;-80
2021/11/29 09:23:59;;;;;;;10.47;5.67;;;;;;;1.10;100.00;151650.84;5099917;28;20548;-80
2021/11/29 09:26:35;;;;;;;8.57;5.83;;;;;;;1.15;100.00;151664.97;5075394;28;20840;-80
2021/11/29 09:29:11;;;;;;;8.17;5.73;;;;;;;1.18;100.00;151672.69;5081722;28;20606;-80
2021/11/29 09:31:47;;;;;;;6.97;4.97;;;;;;;1.26;100.00;151691.94;5069934;28;20445;-80
2021/11/29 09:34:23;;;;;;;8.23;5.17;;;;;;;1.27;100.00;151693.22;5080187;28;20514;-80
2021/11/29 09:36:58;;;;;;;9.20;5.80;;;;;;;1.33;100.00;151708.63;5082372;28;20453;-80
2021/11/29 09:39:37;;;;;;;6.00;4.50;;;;;;;1.29;100.00;151698.38;5081026;28;20434;-80
2021/11/29 09:42:13;;;;;;;5.90;4.00;;;;;;;1.34;100.00;151711.19;5074654;28;20449;-80
2021/11/29 09:44:53;;;;;;;6.83;4.20;;;;;;;1.38;100.00;151721.50;5079229;28;20451;-80
2021/11/29 09:47:28;;;;;;;6.07;4.07;;;;;;;1.44;100.00;151736.88;5058331;28;20450;-80
2021/11/29 09:50:05;;;;;;;4.93;3.80;;;;;;;1.46;100.00;151742.00;5064210;28;21053;-80
2021/11/29 09:52:41;;;;;;;6.80;4.00;;;;;;;1.47;100.00;151745.91;5060896;28;20963;-80
2021/11/29 09:55:21;;;;;;;6.73;4.47;;;;;;;1.55;100.00;151766.47;5076863;28;20436;-80
2021/11/29 09:57:59;;;;;;;6.70;4.33;;;;;;;1.50;100.00;151753.63;5078353;28;20482;-80
2021/11/29 10:00:37;;;;;;;5.90;4.00;;;;;;;1.54;100.00;151762.56;5052050;28;20536;-80
2021/11/29 10:03:13;;;;;;;6.00;3.83;;;;;;;1.56;100.00;151767.75;5038454;28;20793;-80
2021/11/29 10:05:49;;;;;;;5.83;3.90;;;;;;;1.56;100.00;151767.75;5052278;28;20456;-80
2021/11/29 10:08:28;;;;;;;6.13;4.20;;;;;;;1.58;100.00;151774.19;5060857;28;20879;-80
2021/11/29 10:11:09;;;;;;;5.40;3.70;;;;;;;1.55;100.00;151766.47;5048534;28;20525;-80
2021/11/29 10:13:50;;;;;;;6.60;3.67;;;;;;;1.58;100.00;151774.19;5053851;28;20493;-80
2021/11/29 10:16:34;;;;;;;6.10;4.50;;;;;;;1.56;100.00;151767.75;5048970;28;20445;-80
2021/11/29 10:19:12;;;;;;;6.17;4.10;;;;;;;1.60;100.00;151779.31;5044903;28;20435;-80
2021/11/29 10:21:48;;;;;;;6.70;3.30;;;;;;;1.70;100.00;151803.69;5053212;28;20473;-80
2021/11/29 10:24:24;;;;;;;8.30;3.83;;;;;;;1.76;100.00;151819.13;5047783;28;20533;-80
2021/11/29 10:27:00;;;;;;;4.90;3.53;;;;;;;1.82;100.00;151834.56;5062241;28;20525;-81
2021/11/29 10:29:36;;;;;;;6.00;5.20;;;;;;;1.84;100.00;151841.00;5052010;28;20524;-80
2021/11/29 10:32:12;;;;;;;8.70;3.57;;;;;;;1.77;100.00;151821.72;5037663;28;20848;-81
2021/11/29 10:34:47;;;;;;;5.53;3.60;;;;;;;1.93;100.00;151861.56;5051426;28;20470;-80
2021/11/29 10:37:27;;;;;;;5.93;3.80;;;;;;;2.02;100.00;151885.97;5051186;28;20445;-80
2021/11/29 10:40:07;;;;;;;8.93;5.13;;;;;;;2.04;100.00;151891.09;5049107;28;20442;-80
2021/11/29 10:42:44;;;;;;;5.93;3.97;;;;;;;2.00;100.00;151880.84;5046205;28;20439;-81
2021/11/29 10:45:23;;;;;;;6.53;3.37;;;;;;;2.09;100.00;151902.72;5053384;28;20556;-80
2021/11/29 10:48:00;;;;;;;3.83;2.97;;;;;;;2.11;100.00;151909.13;5032582;28;20463;-80
2021/11/29 10:50:35;;;;;;;7.13;3.77;;;;;;;2.18;100.00;151925.81;5044919;28;20932;-80
2021/11/29 10:53:12;;;;;;;5.70;3.60;;;;;;;2.20;100.00;151932.25;5049767;28;20821;-80
2021/11/29 10:55:59;;;;;;;8.13;3.30;;;;;;;2.18;100.00;151927.13;5036214;28;20505;-80
2021/11/29 10:58:42;;;;;;;4.30;3.13;;;;;;;2.16;100.00;151921.97;5076241;28;20471;-80
2021/11/29 11:01:19;;;;;;;5.47;4.13;;;;;;;2.18;100.00;151927.13;5073443;28;20447;-80
2021/11/29 11:03:56;;;;;;;5.33;3.67;;;;;;;2.25;100.00;151943.84;5055542;28;20888;-80
2021/11/29 11:06:33;;;;;;;6.83;3.83;;;;;;;2.25;100.00;151945.09;5066460;28;20451;-81
2021/11/29 11:09:11;;;;;;;6.87;3.23;;;;;;;2.34;100.00;151968.25;5068182;28;20518;-80
2021/11/29 11:11:49;;;;;;;4.70;3.20;;;;;;;2.37;100.00;151974.69;5091092;28;20467;-80
2021/11/29 11:14:27;;;;;;;7.07;3.03;;;;;;;2.43;100.00;151990.13;5077268;28;20463;-80
2021/11/29 11:17:04;;;;;;;12.53;4.50;;;;;;;2.42;100.00;151988.84;5090412;28;20447;-80
2021/11/29 11:19:41;;;;;;;4.70;3.83;;;;;;;2.38;100.00;151978.53;5078827;28;20516;-80
2021/11/29 11:22:23;;;;;;;5.20;4.10;;;;;;;2.36;100.00;151972.09;5094658;28;20836;-80
2021/11/29 11:25:00;;;;;;;6.43;3.77;;;;;;;2.41;100.00;151986.25;5086928;28;20451;-80
2021/11/29 11:27:37;;;;;;;8.10;4.03;;;;;;;2.37;100.00;151976.00;5074908;28;20544;-80
2021/11/29 11:30:15;;;;;;;5.53;3.57;;;;;;;2.40;100.00;151982.41;5059997;28;20443;-80
2021/11/29 11:32:55;;;;;;;10.13;4.50;;;;;;;2.38;100.00;151978.53;5088301;28;20482;-80
2021/11/29 11:35:33;;;;;;;4.97;3.80;;;;;;;2.32;100.00;151963.13;5078731;28;20472;-80
2021/11/29 11:38:11;;;;;;;5.27;3.70;;;;;;;2.18;100.00;151927.13;5096362;28;20436;-80
2021/11/29 11:40:50;;;;;;;6.93;4.33;;;;;;;2.15;100.00;151919.41;5094818;28;20516;-80
2021/11/29 11:43:25;;;;;;;5.87;4.17;;;;;;;2.11;100.00;151909.13;5092518;28;20446;-80
2021/11/29 11:46:03;;;;;;;5.40;3.80;;;;;;;2.05;100.00;151893.69;5078614;28;20449;-80
2021/11/29 11:48:38;;;;;;;7.20;4.57;;;;;;;1.97;100.00;151873.13;5059710;28;20462;-79
2021/11/29 11:51:14;;;;;;;5.77;3.60;;;;;;;1.96;100.00;151870.53;5074692;28;20790;-80
2021/11/29 11:53:49;;;;;;;6.40;3.20;;;;;;;1.94;100.00;151864.09;5067030;28;20480;-80
2021/11/29 11:56:26;;;;;;;6.90;3.73;;;;;;;1.91;100.00;151857.69;5078898;28;20447;-79